sensor_id;sensor_type;location;lat;lon;timestamp;pressure;altitude;pressure_sealevel;temperature;humidity
6196;BME280;3131;42.630;23.382;2023-01-30T00:01:15;94618.25;;;-0.62;100.00
6196;BME280;3131;42.630;23.382;2023-01-30T00:03:45;94603.89;;;-0.65;100.00
6196;BME280;3131;42.630;23.382;2023-01-30T00:06:14;94606.31;;;-0.64;100.00
6196;BME280;3131;42.630;23.382;2023-01-30T00:08:44;94604.13;;;-0.57;100.00
6196;BME280;3131;42.630;23.382;2023-01-30T00:11:14;94603.44;;;-0.63;100.00
6196;BME280;3131;42.630;23.382;2023-01-30T00:13:44;94593.80;;;-0.58;100.00
6196;BME280;3131;42.630;23.382;2023-01-30T00:16:15;94594.73;;;-0.62;100.00
6196;BME280;3131;42.630;23.382;2023-01-30T00:18:45;94600.22;;;-0.89;100.00
6196;BME280;3131;42.630;23.382;2023-01-30T00:21:15;94600.34;;;-0.96;100.00
6196;BME280;3131;42.630;23.382;2023-01-30T00:23:44;94596.25;;;-0.97;100.00
6196;BME280;3131;42.630;23.382;2023-01-30T00:26:13;94600.70;;;-0.91;100.00
6196;BME280;3131;42.630;23.382;2023-01-30T00:28:43;94596.77;;;-0.81;100.00
6196;BME280;3131;42.630;23.382;2023-01-30T00:31:12;94596.52;;;-0.68;100.00
6196;BME280;3131;42.630;23.382;2023-01-30T00:33:41;94589.89;;;-0.68;100.00
6196;BME280;3131;42.630;23.382;2023-01-30T00:36:11;94601.28;;;-0.59;100.00
6196;BME280;3131;42.630;23.382;2023-01-30T00:38:40;94600.34;;;-0.54;100.00
6196;BME280;3131;42.630;23.382;2023-01-30T00:41:10;94594.60;;;-0.56;100.00
6196;BME280;3131;42.630;23.382;2023-01-30T00:43:40;94591.87;;;-0.63;100.00
6196;BME280;3131;42.630;23.382;2023-01-30T00:46:29;94593.05;;;-0.81;100.00
6196;BME280;3131;42.630;23.382;2023-01-30T00:49:17;94577.31;;;-0.78;100.00
6196;BME280;3131;42.630;23.382;2023-01-30T00:51:47;94578.62;;;-0.62;100.00
6196;BME280;3131;42.630;23.382;2023-01-30T00:54:16;94571.83;;;-0.73;100.00
6196;BME280;3131;42.630;23.382;2023-01-30T00:56:45;94570.53;;;-0.70;100.00
6196;BME280;3131;42.630;23.382;2023-01-30T00:59:15;94566.75;;;-0.67;100.00
6196;BME280;3131;42.630;23.382;2023-01-30T01:01:44;94529.52;;;-1.01;100.00
6196;BME280;3131;42.630;23.382;2023-01-30T01:04:13;94568.53;;;-0.72;100.00
6196;BME280;3131;42.630;23.382;2023-01-30T01:06:43;94569.36;;;-0.73;100.00
6196;BME280;3131;42.630;23.382;2023-01-30T01:09:12;94572.24;;;-0.72;100.00
6196;BME280;3131;42.630;23.382;2023-01-30T01:11:42;94568.95;;;-0.73;100.00
6196;BME280;3131;42.630;23.382;2023-01-30T01:14:11;94570.47;;;-0.67;100.00
6196;BME280;3131;42.630;23.382;2023-01-30T01:16:40;94571.52;;;-0.77;100.00
6196;BME280;3131;42.630;23.382;2023-01-30T01:19:10;94575.16;;;-0.74;100.00
6196;BME280;3131;42.630;23.382;2023-01-30T01:21:39;94575.77;;;-0.82;100.00
6196;BME280;3131;42.630;23.382;2023-01-30T01:24:12;94570.14;;;-0.90;100.00
6196;BME280;3131;42.630;23.382;2023-01-30T01:26:42;94562.52;;;-0.81;100.00
6196;BME280;3131;42.630;23.382;2023-01-30T01:29:13;94558.43;;;-0.82;100.00
6196;BME280;3131;42.630;23.382;2023-01-30T01:31:43;94562.72;;;-0.92;100.00
6196;BME280;3131;42.630;23.382;2023-01-30T01:34:12;94561.17;;;-0.77;100.00
6196;BME280;3131;42.630;23.382;2023-01-30T01:36:41;94565.26;;;-0.74;100.00
6196;BME280;3131;42.630;23.382;2023-01-30T01:39:11;94560.17;;;-0.87;100.00
6196;BME280;3131;42.630;23.382;2023-01-30T01:41:40;94556.39;;;-0.84;100.00
6196;BME280;3131;42.630;23.382;2023-01-30T01:44:10;94549.45;;;-0.88;100.00
6196;BME280;3131;42.630;23.382;2023-01-30T01:49:24;94558.83;;;-0.83;100.00
6196;BME280;3131;42.630;23.382;2023-01-30T01:51:56;94563.50;;;-0.88;100.00
6196;BME280;3131;42.630;23.382;2023-01-30T01:54:31;94556.83;;;-0.85;100.00
6196;BME280;3131;42.630;23.382;2023-01-30T01:57:00;94561.53;;;-0.94;100.00
6196;BME280;3131;42.630;23.382;2023-01-30T01:59:34;94555.17;;;-0.86;100.00
6196;BME280;3131;42.630;23.382;2023-01-30T02:02:06;94559.60;;;-0.79;100.00
6196;BME280;3131;42.630;23.382;2023-01-30T02:04:38;94560.43;;;-0.80;100.00
6196;BME280;3131;42.630;23.382;2023-01-30T02:07:26;94560.22;;;-1.11;100.00
6196;BME280;3131;42.630;23.382;2023-01-30T02:09:57;94566.26;;;-1.25;100.00
6196;BME280;3131;42.630;23.382;2023-01-30T02:12:27;94562.24;;;-1.08;100.00
6196;BME280;3131;42.630;23.382;2023-01-30T02:14:57;94563.92;;;-1.10;100.00
6196;BME280;3131;42.630;23.382;2023-01-30T02:17:28;94561.83;;;-1.09;100.00
6196;BME280;3131;42.630;23.382;2023-01-30T02:20:01;94562.50;;;-1.01;100.00
6196;BME280;3131;42.630;23.382;2023-01-30T02:35:16;94560.41;;;-0.79;100.00
6196;BME280;3131;42.630;23.382;2023-01-30T02:37:56;94559.56;;;-0.99;100.00
6196;BME280;3131;42.630;23.382;2023-01-30T02:40:29;94558.13;;;-0.88;100.00
6196;BME280;3131;42.630;23.382;2023-01-30T02:43:03;94575.65;;;-0.99;100.00
6196;BME280;3131;42.630;23.382;2023-01-30T02:45:35;94553.88;;;-1.23;100.00
6196;BME280;3131;42.630;23.382;2023-01-30T02:48:08;94548.06;;;-1.22;100.00
6196;BME280;3131;42.630;23.382;2023-01-30T02:50:39;94546.77;;;-1.19;100.00
6196;BME280;3131;42.630;23.382;2023-01-30T02:55:50;94547.79;;;-1.08;100.00
6196;BME280;3131;42.630;23.382;2023-01-30T02:58:20;94542.32;;;-1.24;100.00
6196;BME280;3131;42.630;23.382;2023-01-30T03:04:08;94549.19;;;-1.16;100.00
6196;BME280;3131;42.630;23.382;2023-01-30T03:06:51;94553.45;;;-1.45;100.00
6196;BME280;3131;42.630;23.382;2023-01-30T03:09:24;94555.17;;;-1.49;100.00
6196;BME280;3131;42.630;23.382;2023-01-30T03:11:56;94555.12;;;-1.46;100.00
6196;BME280;3131;42.630;23.382;2023-01-30T03:14:27;94553.83;;;-1.43;100.00
6196;BME280;3131;42.630;23.382;2023-01-30T03:16:59;94541.63;;;-1.52;100.00
6196;BME280;3131;42.630;23.382;2023-01-30T03:19:30;94541.56;;;-1.49;100.00
6196;BME280;3131;42.630;23.382;2023-01-30T03:21:59;94535.87;;;-1.54;100.00
6196;BME280;3131;42.630;23.382;2023-01-30T03:24:29;94537.23;;;-1.60;100.00
6196;BME280;3131;42.630;23.382;2023-01-30T03:27:01;94533.08;;;-1.58;100.00
6196;BME280;3131;42.630;23.382;2023-01-30T03:29:31;94524.84;;;-1.58;100.00
6196;BME280;3131;42.630;23.382;2023-01-30T03:32:00;94522.39;;;-1.60;100.00
6196;BME280;3131;42.630;23.382;2023-01-30T03:34:30;94521.95;;;-1.58;100.00
6196;BME280;3131;42.630;23.382;2023-01-30T03:36:59;94516.84;;;-1.49;100.00
6196;BME280;3131;42.630;23.382;2023-01-30T03:39:28;94514.97;;;-1.60;100.00
6196;BME280;3131;42.630;23.382;2023-01-30T03:41:58;94514.63;;;-1.42;100.00
6196;BME280;3131;42.630;23.382;2023-01-30T03:44:27;94511.52;;;-1.51;100.00
6196;BME280;3131;42.630;23.382;2023-01-30T03:46:56;94508.70;;;-1.33;100.00
6196;BME280;3131;42.630;23.382;2023-01-30T03:49:26;94520.30;;;-1.59;100.00
6196;BME280;3131;42.630;23.382;2023-01-30T03:51:55;94518.94;;;-1.51;100.00
6196;BME280;3131;42.630;23.382;2023-01-30T03:54:24;94525.78;;;-1.43;100.00
6196;BME280;3131;42.630;23.382;2023-01-30T03:56:54;94520.55;;;-1.49;100.00
6196;BME280;3131;42.630;23.382;2023-01-30T03:59:23;94514.64;;;-1.43;100.00
6196;BME280;3131;42.630;23.382;2023-01-30T04:01:52;94510.11;;;-1.42;100.00
6196;BME280;3131;42.630;23.382;2023-01-30T04:04:22;94509.95;;;-1.34;100.00
6196;BME280;3131;42.630;23.382;2023-01-30T04:06:52;94510.66;;;-1.50;100.00
6196;BME280;3131;42.630;23.382;2023-01-30T04:09:21;94506.23;;;-1.34;100.00
6196;BME280;3131;42.630;23.382;2023-01-30T04:11:50;94507.86;;;-1.33;100.00
6196;BME280;3131;42.630;23.382;2023-01-30T04:14:20;94501.25;;;-1.12;100.00
6196;BME280;3131;42.630;23.382;2023-01-30T04:16:49;94502.97;;;-1.14;100.00
6196;BME280;3131;42.630;23.382;2023-01-30T04:19:18;94500.32;;;-1.06;100.00
6196;BME280;3131;42.630;23.382;2023-01-30T04:21:48;94507.70;;;-1.05;100.00
6196;BME280;3131;42.630;23.382;2023-01-30T04:24:17;94498.14;;;-1.20;100.00
6196;BME280;3131;42.630;23.382;2023-01-30T04:26:46;94501.69;;;-1.12;100.00
6196;BME280;3131;42.630;23.382;2023-01-30T04:29:16;94504.53;;;-1.11;100.00
6196;BME280;3131;42.630;23.382;2023-01-30T04:31:45;94505.80;;;-1.32;100.00
6196;BME280;3131;42.630;23.382;2023-01-30T04:34:14;94503.84;;;-1.17;100.00
6196;BME280;3131;42.630;23.382;2023-01-30T04:36:44;94507.13;;;-1.18;100.00
6196;BME280;3131;42.630;23.382;2023-01-30T04:39:13;94502.67;;;-1.21;100.00
6196;BME280;3131;42.630;23.382;2023-01-30T04:41:43;94502.78;;;-1.26;100.00
6196;BME280;3131;42.630;23.382;2023-01-30T04:44:12;94500.81;;;-1.31;100.00
6196;BME280;3131;42.630;23.382;2023-01-30T04:46:41;94499.39;;;-1.22;100.00
6196;BME280;3131;42.630;23.382;2023-01-30T04:49:11;94497.66;;;-1.17;100.00
6196;BME280;3131;42.630;23.382;2023-01-30T04:51:40;94487.94;;;-1.26;100.00
6196;BME280;3131;42.630;23.382;2023-01-30T04:54:09;94491.70;;;-1.29;100.00
6196;BME280;3131;42.630;23.382;2023-01-30T04:56:39;94483.99;;;-1.15;100.00
6196;BME280;3131;42.630;23.382;2023-01-30T04:59:08;94394.45;;;-1.94;100.00
6196;BME280;3131;42.630;23.382;2023-01-30T05:01:38;94477.73;;;-1.31;100.00
6196;BME280;3131;42.630;23.382;2023-01-30T05:04:08;94475.30;;;-1.33;100.00
6196;BME280;3131;42.630;23.382;2023-01-30T05:06:37;94472.59;;;-1.22;100.00
6196;BME280;3131;42.630;23.382;2023-01-30T05:09:07;94473.95;;;-1.28;100.00
6196;BME280;3131;42.630;23.382;2023-01-30T05:14:17;94477.69;;;-1.09;100.00
6196;BME280;3131;42.630;23.382;2023-01-30T05:16:46;94473.97;;;-1.09;100.00
6196;BME280;3131;42.630;23.382;2023-01-30T05:19:16;94476.77;;;-1.05;100.00
6196;BME280;3131;42.630;23.382;2023-01-30T05:21:45;94480.63;;;-1.11;100.00
6196;BME280;3131;42.630;23.382;2023-01-30T05:24:15;94484.66;;;-1.07;100.00
6196;BME280;3131;42.630;23.382;2023-01-30T05:26:44;94486.83;;;-1.33;100.00
6196;BME280;3131;42.630;23.382;2023-01-30T05:29:13;94486.25;;;-1.24;100.00
6196;BME280;3131;42.630;23.382;2023-01-30T05:34:29;94495.27;;;-1.02;100.00
6196;BME280;3131;42.630;23.382;2023-01-30T05:39:47;94486.27;;;-1.04;100.00
6196;BME280;3131;42.630;23.382;2023-01-30T05:42:16;94478.53;;;-1.10;100.00
6196;BME280;3131;42.630;23.382;2023-01-30T05:47:28;94479.17;;;-1.02;100.00
6196;BME280;3131;42.630;23.382;2023-01-30T05:52:42;94487.00;;;-1.20;100.00
6196;BME280;3131;42.630;23.382;2023-01-30T05:55:12;94442.95;;;-1.45;100.00
6196;BME280;3131;42.630;23.382;2023-01-30T05:57:42;94484.36;;;-1.12;100.00
6196;BME280;3131;42.630;23.382;2023-01-30T06:00:14;94486.45;;;-1.13;100.00
6196;BME280;3131;42.630;23.382;2023-01-30T06:02:43;94487.28;;;-1.14;100.00
6196;BME280;3131;42.630;23.382;2023-01-30T06:07:51;94486.75;;;-1.08;100.00
6196;BME280;3131;42.630;23.382;2023-01-30T06:13:08;94491.48;;;-0.99;100.00
6196;BME280;3131;42.630;23.382;2023-01-30T06:18:25;94486.51;;;-1.37;100.00
6196;BME280;3131;42.630;23.382;2023-01-30T06:23:42;94481.08;;;-1.13;100.00
6196;BME280;3131;42.630;23.382;2023-01-30T06:26:13;94471.92;;;-1.09;100.00
6196;BME280;3131;42.630;23.382;2023-01-30T06:31:24;94465.78;;;-0.91;100.00
6196;BME280;3131;42.630;23.382;2023-01-30T06:36:35;94474.77;;;-0.89;100.00
6196;BME280;3131;42.630;23.382;2023-01-30T06:39:06;94478.71;;;-0.98;100.00
6196;BME280;3131;42.630;23.382;2023-01-30T06:41:36;94478.09;;;-0.88;100.00
6196;BME280;3131;42.630;23.382;2023-01-30T06:44:07;94478.66;;;-0.97;100.00
6196;BME280;3131;42.630;23.382;2023-01-30T06:46:37;94485.83;;;-0.84;100.00
6196;BME280;3131;42.630;23.382;2023-01-30T06:49:06;94480.14;;;-0.88;100.00
6196;BME280;3131;42.630;23.382;2023-01-30T06:51:36;94484.15;;;-0.82;100.00
6196;BME280;3131;42.630;23.382;2023-01-30T06:54:06;94492.78;;;-1.02;100.00
6196;BME280;3131;42.630;23.382;2023-01-30T06:56:36;94495.55;;;-1.15;100.00
6196;BME280;3131;42.630;23.382;2023-01-30T06:59:06;94499.39;;;-1.01;100.00
6196;BME280;3131;42.630;23.382;2023-01-30T07:01:36;94492.10;;;-0.89;100.00
6196;BME280;3131;42.630;23.382;2023-01-30T07:04:06;94495.67;;;-0.81;100.00
6196;BME280;3131;42.630;23.382;2023-01-30T07:06:36;94499.89;;;-1.06;100.00
6196;BME280;3131;42.630;23.382;2023-01-30T07:09:05;94503.72;;;-0.91;100.00
6196;BME280;3131;42.630;23.382;2023-01-30T07:11:35;94505.23;;;-1.05;100.00
6196;BME280;3131;42.630;23.382;2023-01-30T07:14:05;94499.20;;;-1.12;100.00
6196;BME280;3131;42.630;23.382;2023-01-30T07:16:34;94502.67;;;-1.21;100.00
6196;BME280;3131;42.630;23.382;2023-01-30T07:19:04;94505.03;;;-0.96;100.00
6196;BME280;3131;42.630;23.382;2023-01-30T07:21:33;94512.19;;;-1.01;100.00
6196;BME280;3131;42.630;23.382;2023-01-30T07:24:03;94511.08;;;-1.07;100.00
6196;BME280;3131;42.630;23.382;2023-01-30T07:26:33;94510.09;;;-1.00;100.00
6196;BME280;3131;42.630;23.382;2023-01-30T07:29:03;94518.38;;;-1.01;100.00
6196;BME280;3131;42.630;23.382;2023-01-30T07:31:33;94515.03;;;-0.79;100.00
6196;BME280;3131;42.630;23.382;2023-01-30T07:34:03;94522.34;;;-0.75;100.00
6196;BME280;3131;42.630;23.382;2023-01-30T07:36:33;94519.63;;;-0.64;100.00
6196;BME280;3131;42.630;23.382;2023-01-30T07:39:03;94525.62;;;-0.55;100.00
6196;BME280;3131;42.630;23.382;2023-01-30T07:41:32;94528.14;;;-0.56;100.00
6196;BME280;3131;42.630;23.382;2023-01-30T07:44:03;94530.34;;;-0.81;100.00
6196;BME280;3131;42.630;23.382;2023-01-30T07:46:32;94538.05;;;-0.56;100.00
6196;BME280;3131;42.630;23.382;2023-01-30T07:49:02;94538.44;;;-0.55;100.00
6196;BME280;3131;42.630;23.382;2023-01-30T07:51:32;94535.34;;;-0.65;100.00
6196;BME280;3131;42.630;23.382;2023-01-30T07:54:02;94530.46;;;-0.87;100.00
6196;BME280;3131;42.630;23.382;2023-01-30T07:56:31;94532.95;;;-0.89;100.00
6196;BME280;3131;42.630;23.382;2023-01-30T07:59:01;94529.72;;;-0.91;100.00
6196;BME280;3131;42.630;23.382;2023-01-30T08:01:32;94523.60;;;-0.96;100.00
6196;BME280;3131;42.630;23.382;2023-01-30T08:04:01;94515.06;;;-1.02;100.00
6196;BME280;3131;42.630;23.382;2023-01-30T08:06:31;94508.91;;;-1.23;100.00
6196;BME280;3131;42.630;23.382;2023-01-30T08:09:02;94503.47;;;-1.19;100.00
6196;BME280;3131;42.630;23.382;2023-01-30T08:14:18;94502.84;;;-1.08;100.00
6196;BME280;3131;42.630;23.382;2023-01-30T08:16:47;94500.75;;;-1.28;100.00
6196;BME280;3131;42.630;23.382;2023-01-30T08:19:18;94502.30;;;-1.22;100.00
6196;BME280;3131;42.630;23.382;2023-01-30T08:21:48;94504.23;;;-0.96;100.00
6196;BME280;3131;42.630;23.382;2023-01-30T08:24:17;94499.22;;;-0.93;100.00
6196;BME280;3131;42.630;23.382;2023-01-30T08:26:49;94505.59;;;-1.02;100.00
6196;BME280;3131;42.630;23.382;2023-01-30T08:29:18;94499.19;;;-0.72;100.00
6196;BME280;3131;42.630;23.382;2023-01-30T08:31:47;94511.02;;;-0.85;100.00
6196;BME280;3131;42.630;23.382;2023-01-30T08:34:17;94504.53;;;-0.90;100.00
6196;BME280;3131;42.630;23.382;2023-01-30T08:36:48;94492.94;;;-0.88;100.00
6196;BME280;3131;42.630;23.382;2023-01-30T08:39:17;94500.08;;;-0.76;100.00
6196;BME280;3131;42.630;23.382;2023-01-30T08:41:47;94494.55;;;-0.68;100.00
6196;BME280;3131;42.630;23.382;2023-01-30T08:44:16;94494.44;;;-0.44;100.00
6196;BME280;3131;42.630;23.382;2023-01-30T08:46:45;94494.69;;;-0.38;100.00
6196;BME280;3131;42.630;23.382;2023-01-30T08:49:15;94491.59;;;-0.47;100.00
6196;BME280;3131;42.630;23.382;2023-01-30T08:51:44;94490.47;;;-0.17;100.00
6196;BME280;3131;42.630;23.382;2023-01-30T08:54:14;94485.95;;;-0.17;100.00
6196;BME280;3131;42.630;23.382;2023-01-30T08:56:43;94486.03;;;0.12;100.00
6196;BME280;3131;42.630;23.382;2023-01-30T08:59:13;94490.66;;;0.10;100.00
6196;BME280;3131;42.630;23.382;2023-01-30T09:01:42;94489.10;;;0.38;100.00
6196;BME280;3131;42.630;23.382;2023-01-30T09:04:11;94485.54;;;0.47;100.00
6196;BME280;3131;42.630;23.382;2023-01-30T09:06:41;94478.72;;;1.00;100.00
6196;BME280;3131;42.630;23.382;2023-01-30T09:09:10;94476.96;;;1.31;100.00
6196;BME280;3131;42.630;23.382;2023-01-30T09:11:40;94474.55;;;1.43;100.00
6196;BME280;3131;42.630;23.382;2023-01-30T09:14:09;94479.27;;;1.37;100.00
6196;BME280;3131;42.630;23.382;2023-01-30T09:16:38;94474.62;;;0.84;100.00
6196;BME280;3131;42.630;23.382;2023-01-30T09:19:07;94467.23;;;1.24;100.00
6196;BME280;3131;42.630;23.382;2023-01-30T09:21:37;94479.17;;;1.41;100.00
6196;BME280;3131;42.630;23.382;2023-01-30T09:24:07;94464.66;;;1.68;100.00
6196;BME280;3131;42.630;23.382;2023-01-30T09:26:36;94474.01;;;1.73;100.00
6196;BME280;3131;42.630;23.382;2023-01-30T09:29:07;94477.92;;;1.27;100.00
6196;BME280;3131;42.630;23.382;2023-01-30T09:31:36;94474.76;;;1.07;100.00
6196;BME280;3131;42.630;23.382;2023-01-30T09:34:05;94485.33;;;0.86;100.00
6196;BME280;3131;42.630;23.382;2023-01-30T09:36:35;94475.34;;;0.58;100.00
6196;BME280;3131;42.630;23.382;2023-01-30T09:39:04;94478.13;;;0.62;100.00
6196;BME280;3131;42.630;23.382;2023-01-30T09:41:43;94465.17;;;1.10;100.00
6196;BME280;3131;42.630;23.382;2023-01-30T09:47:11;94472.03;;;0.42;100.00
6196;BME280;3131;42.630;23.382;2023-01-30T09:49:46;94458.97;;;0.95;100.00
6196;BME280;3131;42.630;23.382;2023-01-30T09:52:21;94450.06;;;1.18;100.00
6196;BME280;3131;42.630;23.382;2023-01-30T09:54:52;94443.70;;;1.49;100.00
6196;BME280;3131;42.630;23.382;2023-01-30T09:57:24;94446.96;;;1.51;100.00
6196;BME280;3131;42.630;23.382;2023-01-30T09:59:57;94441.54;;;2.03;100.00
6196;BME280;3131;42.630;23.382;2023-01-30T10:02:36;94437.98;;;2.35;100.00
6196;BME280;3131;42.630;23.382;2023-01-30T10:05:06;94441.28;;;2.36;100.00
6196;BME280;3131;42.630;23.382;2023-01-30T10:07:43;94438.25;;;2.39;100.00
6196;BME280;3131;42.630;23.382;2023-01-30T10:10:16;94436.89;;;2.66;100.00
6196;BME280;3131;42.630;23.382;2023-01-30T10:15:40;94424.77;;;2.68;100.00
6196;BME280;3131;42.630;23.382;2023-01-30T10:18:26;94418.23;;;2.54;100.00
6196;BME280;3131;42.630;23.382;2023-01-30T10:21:03;94416.59;;;2.65;100.00
6196;BME280;3131;42.630;23.382;2023-01-30T10:23:48;94408.32;;;2.76;100.00
6196;BME280;3131;42.630;23.382;2023-01-30T10:26:19;94412.70;;;2.91;100.00
6196;BME280;3131;42.630;23.382;2023-01-30T10:28:54;94397.98;;;2.97;100.00
6196;BME280;3131;42.630;23.382;2023-01-30T10:31:26;94392.47;;;2.55;100.00
6196;BME280;3131;42.630;23.382;2023-01-30T10:33:59;94394.34;;;2.72;100.00
6196;BME280;3131;42.630;23.382;2023-01-30T10:36:33;94389.53;;;1.47;100.00
6196;BME280;3131;42.630;23.382;2023-01-30T10:39:06;94375.73;;;1.88;100.00
6196;BME280;3131;42.630;23.382;2023-01-30T10:41:38;94372.38;;;1.89;100.00
6196;BME280;3131;42.630;23.382;2023-01-30T10:44:10;94376.67;;;0.79;100.00
6196;BME280;3131;42.630;23.382;2023-01-30T10:46:52;94356.73;;;0.82;100.00
6196;BME280;3131;42.630;23.382;2023-01-30T10:49:25;94353.69;;;1.41;100.00
6196;BME280;3131;42.630;23.382;2023-01-30T10:51:57;94352.45;;;1.91;100.00
6196;BME280;3131;42.630;23.382;2023-01-30T10:54:31;94343.63;;;2.17;100.00
6196;BME280;3131;42.630;23.382;2023-01-30T10:57:02;94348.80;;;2.46;100.00
6196;BME280;3131;42.630;23.382;2023-01-30T10:59:42;94339.24;;;1.89;100.00
6196;BME280;3131;42.630;23.382;2023-01-30T11:02:18;94334.64;;;1.90;100.00
6196;BME280;3131;42.630;23.382;2023-01-30T11:04:49;94317.22;;;1.66;100.00
6196;BME280;3131;42.630;23.382;2023-01-30T11:07:19;94318.16;;;1.99;100.00
6196;BME280;3131;42.630;23.382;2023-01-30T11:09:49;94311.94;;;1.75;100.00
6196;BME280;3131;42.630;23.382;2023-01-30T11:15:00;94301.67;;;1.23;100.00
6196;BME280;3131;42.630;23.382;2023-01-30T11:17:33;94293.00;;;1.71;100.00
6196;BME280;3131;42.630;23.382;2023-01-30T11:20:09;94297.67;;;1.69;100.00
6196;BME280;3131;42.630;23.382;2023-01-30T11:22:44;94293.39;;;0.84;100.00
6196;BME280;3131;42.630;23.382;2023-01-30T11:25:17;94289.05;;;0.77;100.00
6196;BME280;3131;42.630;23.382;2023-01-30T11:27:52;94282.79;;;0.65;100.00
6196;BME280;3131;42.630;23.382;2023-01-30T11:30:26;94274.11;;;1.17;100.00
6196;BME280;3131;42.630;23.382;2023-01-30T11:33:09;94268.14;;;1.23;100.00
6196;BME280;3131;42.630;23.382;2023-01-30T11:35:38;94264.17;;;1.30;100.00
6196;BME280;3131;42.630;23.382;2023-01-30T11:38:19;94265.25;;;1.10;100.00
6196;BME280;3131;42.630;23.382;2023-01-30T11:40:46;94263.23;;;1.46;100.00
6196;BME280;3131;42.630;23.382;2023-01-30T11:43:15;94253.89;;;1.53;100.00
6196;BME280;3131;42.630;23.382;2023-01-30T11:45:47;94253.41;;;0.80;100.00
6196;BME280;3131;42.630;23.382;2023-01-30T11:48:19;94250.47;;;0.54;100.00
6196;BME280;3131;42.630;23.382;2023-01-30T11:53:35;94235.25;;;0.78;100.00
6196;BME280;3131;42.630;23.382;2023-01-30T11:56:13;94222.42;;;1.03;100.00
6196;BME280;3131;42.630;23.382;2023-01-30T11:58:41;94207.52;;;1.03;100.00
6196;BME280;3131;42.630;23.382;2023-01-30T12:01:13;94213.48;;;1.59;100.00
6196;BME280;3131;42.630;23.382;2023-01-30T12:03:48;94213.59;;;1.90;100.00
6196;BME280;3131;42.630;23.382;2023-01-30T12:09:02;94199.80;;;1.59;100.00
6196;BME280;3131;42.630;23.382;2023-01-30T12:11:41;94191.43;;;1.96;100.00
6196;BME280;3131;42.630;23.382;2023-01-30T12:14:24;94183.76;;;1.68;100.00
6196;BME280;3131;42.630;23.382;2023-01-30T12:16:59;94183.08;;;2.30;100.00
6196;BME280;3131;42.630;23.382;2023-01-30T12:19:42;94184.56;;;2.35;100.00
6196;BME280;3131;42.630;23.382;2023-01-30T12:22:19;94176.05;;;2.08;100.00
6196;BME280;3131;42.630;23.382;2023-01-30T12:24:54;94183.81;;;2.00;100.00
6196;BME280;3131;42.630;23.382;2023-01-30T12:27:27;94180.78;;;2.04;100.00
6196;BME280;3131;42.630;23.382;2023-01-30T12:30:01;94175.16;;;2.21;100.00
6196;BME280;3131;42.630;23.382;2023-01-30T12:32:33;94174.67;;;2.01;100.00
6196;BME280;3131;42.630;23.382;2023-01-30T12:40:30;94160.25;;;2.09;100.00
6196;BME280;3131;42.630;23.382;2023-01-30T12:43:11;94154.68;;;2.14;100.00
6196;BME280;3131;42.630;23.382;2023-01-30T12:45:43;94161.66;;;2.16;100.00
6196;BME280;3131;42.630;23.382;2023-01-30T12:51:18;94153.44;;;2.14;100.00
6196;BME280;3131;42.630;23.382;2023-01-30T12:53:56;94142.33;;;2.23;100.00
6196;BME280;3131;42.630;23.382;2023-01-30T12:56:54;94137.20;;;2.48;100.00
6196;BME280;3131;42.630;23.382;2023-01-30T12:59:28;94130.46;;;2.40;100.00
6196;BME280;3131;42.630;23.382;2023-01-30T13:04:53;94144.53;;;1.29;100.00
6196;BME280;3131;42.630;23.382;2023-01-30T13:07:25;94133.26;;;1.09;100.00
6196;BME280;3131;42.630;23.382;2023-01-30T13:10:02;94121.33;;;1.19;100.00
6196;BME280;3131;42.630;23.382;2023-01-30T13:12:36;94129.48;;;0.99;100.00
6196;BME280;3131;42.630;23.382;2023-01-30T13:15:13;94123.59;;;1.13;100.00
6196;BME280;3131;42.630;23.382;2023-01-30T13:17:55;94116.72;;;1.08;100.00
6196;BME280;3131;42.630;23.382;2023-01-30T13:26:04;94120.64;;;0.78;100.00
6196;BME280;3131;42.630;23.382;2023-01-30T13:28:36;94113.70;;;0.63;100.00
6196;BME280;3131;42.630;23.382;2023-01-30T13:31:08;94108.33;;;0.50;100.00
6196;BME280;3131;42.630;23.382;2023-01-30T13:33:40;94104.81;;;0.44;100.00
6196;BME280;3131;42.630;23.382;2023-01-30T13:36:14;94106.86;;;0.58;100.00
6196;BME280;3131;42.630;23.382;2023-01-30T13:38:51;94108.13;;;0.44;100.00
6196;BME280;3131;42.630;23.382;2023-01-30T13:41:20;94094.59;;;0.53;100.00
6196;BME280;3131;42.630;23.382;2023-01-30T13:43:52;94100.13;;;0.23;100.00
6196;BME280;3131;42.630;23.382;2023-01-30T13:46:25;94095.42;;;0.40;100.00
6196;BME280;3131;42.630;23.382;2023-01-30T13:49:08;94094.19;;;0.40;100.00
6196;BME280;3131;42.630;23.382;2023-01-30T13:51:45;94090.25;;;0.72;100.00
6196;BME280;3131;42.630;23.382;2023-01-30T13:57:33;94081.88;;;1.33;100.00
6196;BME280;3131;42.630;23.382;2023-01-30T14:00:26;94046.61;;;0.78;100.00
6196;BME280;3131;42.630;23.382;2023-01-30T14:03:19;94107.96;;;0.74;100.00
6196;BME280;3131;42.630;23.382;2023-01-30T14:09:21;94081.36;;;0.78;100.00
6196;BME280;3131;42.630;23.382;2023-01-30T14:11:56;94077.92;;;0.57;100.00
6196;BME280;3131;42.630;23.382;2023-01-30T14:14:30;94076.88;;;0.64;100.00
6196;BME280;3131;42.630;23.382;2023-01-30T14:17:12;94074.51;;;0.48;100.00
6196;BME280;3131;42.630;23.382;2023-01-30T14:19:52;94074.73;;;0.90;100.00
6196;BME280;3131;42.630;23.382;2023-01-30T14:22:24;94080.56;;;1.24;100.00
6196;BME280;3131;42.630;23.382;2023-01-30T14:31:47;94089.66;;;1.35;100.00
6196;BME280;3131;42.630;23.382;2023-01-30T14:40:39;94080.58;;;0.89;100.00
6196;BME280;3131;42.630;23.382;2023-01-30T14:46:40;94071.92;;;0.87;100.00
6196;BME280;3131;42.630;23.382;2023-01-30T14:51:59;94075.87;;;0.19;100.00
6196;BME280;3131;42.630;23.382;2023-01-30T14:54:33;94065.83;;;-0.16;100.00
6196;BME280;3131;42.630;23.382;2023-01-30T14:57:13;94066.29;;;-0.18;100.00
6196;BME280;3131;42.630;23.382;2023-01-30T14:59:38;94060.91;;;-0.17;100.00
6196;BME280;3131;42.630;23.382;2023-01-30T15:02:24;94060.28;;;-0.24;100.00
6196;BME280;3131;42.630;23.382;2023-01-30T15:05:02;94058.63;;;-0.52;100.00
6196;BME280;3131;42.630;23.382;2023-01-30T15:07:38;94055.96;;;-0.59;100.00
6196;BME280;3131;42.630;23.382;2023-01-30T15:10:18;94064.09;;;-0.83;100.00
6196;BME280;3131;42.630;23.382;2023-01-30T15:15:50;94049.39;;;-0.88;100.00
6196;BME280;3131;42.630;23.382;2023-01-30T15:21:47;94043.97;;;-1.15;100.00
6196;BME280;3131;42.630;23.382;2023-01-30T15:24:40;94053.36;;;-1.27;100.00
6196;BME280;3131;42.630;23.382;2023-01-30T15:27:12;94047.44;;;-1.37;100.00